Time;durP1;ratioP1;P1;durP2;ratioP2;P2;SDS_P1;SDS_P2;PMS_P1;PMS_P2;Temp;Humidity;BMP_temperature;BMP_pressure;BME280_temperature;BME280_humidity;BME280_pressure;Samples;Min_cycle;Max_cycle;Signal;HPM_P1;HPM_P2
2022/02/23 00:01:48;;;;;;;6.35;2.60;;;6.60;99.90;;;;;;5067953;28;20048;-65
2022/02/23 00:04:16;;;;;;;6.15;2.83;;;6.70;99.90;;;;;;5068242;28;20266;-64
2022/02/23 00:06:43;;;;;;;9.65;3.05;;;6.70;99.90;;;;;;5067944;28;20110;-66
2022/02/23 00:09:10;;;;;;;11.48;3.03;;;6.70;99.90;;;;;;5068842;28;20044;-66
2022/02/23 00:11:40;;;;;;;8.32;2.90;;;6.70;99.90;;;;;;5068648;28;20048;-65
2022/02/23 00:14:07;;;;;;;7.70;2.85;;;6.70;99.90;;;;;;5069495;28;20036;-64
2022/02/23 00:16:34;;;;;;;10.45;2.92;;;6.70;99.90;;;;;;5063441;28;20040;-66
2022/02/23 00:19:02;;;;;;;10.27;3.28;;;6.80;99.90;;;;;;5059868;28;20049;-66
2022/02/23 00:21:29;;;;;;;10.02;3.75;;;6.80;99.90;;;;;;5066979;28;20613;-66
2022/02/23 00:23:57;;;;;;;9.00;3.00;;;6.80;99.90;;;;;;5067277;28;20187;-66
2022/02/23 00:26:24;;;;;;;7.78;3.47;;;6.90;99.90;;;;;;5065544;28;20511;-65
2022/02/23 00:28:52;;;;;;;7.65;3.30;;;6.90;99.90;;;;;;5067951;28;20384;-65
2022/02/23 00:31:20;;;;;;;7.55;3.20;;;6.90;99.90;;;;;;5049435;28;20507;-65
2022/02/23 00:33:47;;;;;;;9.30;3.47;;;6.90;99.90;;;;;;5068776;28;20510;-66
2022/02/23 00:36:15;;;;;;;11.75;3.42;;;6.90;99.90;;;;;;5069728;28;20036;-65
2022/02/23 00:38:42;;;;;;;14.05;4.30;;;7.00;99.90;;;;;;5071850;28;20060;-65
2022/02/23 00:41:09;;;;;;;8.68;3.45;;;6.90;99.90;;;;;;5071890;28;20040;-65
2022/02/23 00:43:36;;;;;;;9.38;3.67;;;6.90;99.90;;;;;;5067249;28;20045;-66
2022/02/23 00:46:04;;;;;;;6.43;3.40;;;6.90;99.90;;;;;;5053937;28;20082;-66
2022/02/23 00:48:31;;;;;;;9.82;3.97;;;6.90;99.90;;;;;;5062633;28;20707;-66
2022/02/23 00:50:58;;;;;;;10.48;4.03;;;6.90;99.90;;;;;;5053735;28;20040;-66
2022/02/23 00:53:26;;;;;;;11.75;3.80;;;6.90;99.90;;;;;;5070893;28;20048;-65
2022/02/23 00:55:53;;;;;;;9.30;3.38;;;6.90;99.90;;;;;;5071929;28;20040;-63
2022/02/23 00:58:20;;;;;;;10.10;4.00;;;6.90;99.90;;;;;;5062677;28;20055;-64
2022/02/23 01:00:48;;;;;;;6.50;2.92;;;6.90;99.90;;;;;;5056523;28;20045;-65
2022/02/23 01:03:15;;;;;;;7.07;2.95;;;7.00;99.90;;;;;;5063532;28;20155;-63
2022/02/23 01:05:42;;;;;;;7.00;2.40;;;7.00;99.90;;;;;;5071701;28;20048;-63
2022/02/23 01:08:11;;;;;;;6.97;2.00;;;7.00;99.90;;;;;;5059231;28;20075;-66
2022/02/23 01:10:38;;;;;;;3.95;1.20;;;7.00;99.90;;;;;;5071365;28;20036;-66
2022/02/23 01:13:05;;;;;;;3.75;0.90;;;7.00;99.90;;;;;;5070076;28;20499;-66
2022/02/23 01:15:33;;;;;;;2.30;0.80;;;7.00;99.90;;;;;;5072161;28;20131;-66
2022/02/23 01:18:01;;;;;;;3.20;0.82;;;7.00;99.90;;;;;;5056585;28;20124;-66
2022/02/23 01:20:29;;;;;;;2.20;0.80;;;7.00;99.90;;;;;;5072985;28;20048;-65
2022/02/23 01:22:59;;;;;;;4.00;1.13;;;6.90;99.90;;;;;;5071675;28;20491;-65
2022/02/23 01:25:28;;;;;;;2.00;0.90;;;6.90;99.90;;;;;;5067903;28;20056;-65
2022/02/23 01:27:59;;;;;;;2.72;1.10;;;6.80;99.90;;;;;;5059034;28;20519;-65
2022/02/23 01:30:27;;;;;;;3.10;0.82;;;6.80;99.90;;;;;;5046858;28;20036;-65
2022/02/23 01:32:55;;;;;;;7.03;1.30;;;6.80;99.90;;;;;;5070425;28;20036;-65
2022/02/23 01:35:22;;;;;;;3.15;0.77;;;6.80;99.90;;;;;;5069690;28;20040;-66
2022/02/23 01:37:50;;;;;;;3.92;1.02;;;6.80;99.90;;;;;;5070186;28;20456;-65
2022/02/23 01:40:17;;;;;;;5.10;1.10;;;6.80;99.90;;;;;;5070254;28;20055;-65
2022/02/23 01:42:44;;;;;;;4.70;1.25;;;6.70;99.90;;;;;;5054219;28;20037;-65
2022/02/23 01:45:12;;;;;;;4.30;1.00;;;6.80;99.90;;;;;;5069971;28;20056;-66
2022/02/23 01:47:40;;;;;;;3.60;0.90;;;6.80;99.90;;;;;;5050181;28;20052;-65
2022/02/23 01:50:11;;;;;;;;;;;6.70;99.90;;;;;;5071515;28;20223;-66
2022/02/23 01:52:39;;;;;;;4.03;1.20;;;6.80;99.90;;;;;;5052908;28;19920;-66
2022/02/23 01:55:08;;;;;;;3.92;1.15;;;6.70;99.90;;;;;;5070055;28;20064;-65
2022/02/23 01:57:35;;;;;;;4.50;1.38;;;6.70;99.90;;;;;;5070624;28;20048;-65
2022/02/23 02:00:07;;;;;;;4.82;1.60;;;6.70;99.90;;;;;;5063796;28;20475;-64
2022/02/23 02:02:35;;;;;;;3.47;1.27;;;6.70;99.90;;;;;;5059152;28;20049;-66
2022/02/23 02:05:04;;;;;;;4.78;1.33;;;6.70;99.90;;;;;;5071836;28;20067;-64
2022/02/23 02:07:33;;;;;;;4.07;1.67;;;6.70;99.90;;;;;;5066579;28;20052;-65
2022/02/23 02:10:00;;;;;;;4.15;1.35;;;6.70;99.90;;;;;;5070670;28;20040;-64
2022/02/23 02:12:28;;;;;;;4.07;1.10;;;6.70;99.90;;;;;;5069552;28;20385;-62
2022/02/23 02:14:56;;;;;;;4.70;1.45;;;6.80;99.90;;;;;;5069975;28;20492;-64
2022/02/23 02:17:23;;;;;;;3.30;1.38;;;6.70;99.90;;;;;;5070305;28;20473;-64
2022/02/23 02:19:51;;;;;;;3.20;1.10;;;6.70;99.90;;;;;;5060441;28;20044;-64
2022/02/23 02:22:18;;;;;;;4.50;1.40;;;6.70;99.90;;;;;;5064639;28;20055;-65
2022/02/23 02:24:46;;;;;;;6.00;1.75;;;6.70;99.90;;;;;;5068262;28;20051;-66
2022/02/23 02:27:16;;;;;;;4.95;1.30;;;6.60;99.90;;;;;;5070915;28;20064;-64
2022/02/23 02:29:43;;;;;;;3.97;1.42;;;6.60;99.90;;;;;;5064682;28;20481;-66
2022/02/23 02:32:11;;;;;;;5.30;1.23;;;6.50;99.90;;;;;;5062591;28;20033;-66
2022/02/23 02:34:39;;;;;;;4.65;1.35;;;6.50;99.90;;;;;;5069706;28;20032;-64
2022/02/23 02:37:06;;;;;;;7.60;1.50;;;6.50;99.90;;;;;;5067634;28;20044;-65
2022/02/23 02:39:36;;;;;;;5.55;2.05;;;6.40;99.90;;;;;;5052025;28;20052;-65
2022/02/23 02:42:05;;;;;;;4.25;1.50;;;6.40;99.90;;;;;;5070451;28;20045;-65
2022/02/23 02:44:33;;;;;;;8.60;1.70;;;6.30;99.90;;;;;;5069483;28;20056;-64
2022/02/23 02:47:01;;;;;;;10.43;1.77;;;6.30;99.90;;;;;;5069240;28;20067;-65
2022/02/23 02:49:28;;;;;;;7.47;2.25;;;6.40;99.90;;;;;;5064229;28;20427;-66
2022/02/23 02:51:55;;;;;;;7.82;2.03;;;6.40;99.90;;;;;;5070571;28;20460;-66
2022/02/23 02:54:23;;;;;;;8.25;1.85;;;6.40;99.90;;;;;;5069385;28;20043;-65
2022/02/23 02:56:51;;;;;;;7.95;2.30;;;6.30;99.90;;;;;;5068785;28;20044;-65
2022/02/23 02:59:18;;;;;;;10.25;1.63;;;6.30;99.90;;;;;;5057826;28;20045;-65
2022/02/23 03:01:46;;;;;;;5.10;1.80;;;6.20;99.90;;;;;;5069369;28;20036;-65
2022/02/23 03:04:13;;;;;;;11.07;2.22;;;6.30;99.90;;;;;;5050809;28;20044;-65
2022/02/23 03:06:40;;;;;;;5.95;1.63;;;6.20;99.90;;;;;;5056128;28;20041;-65
2022/02/23 03:09:08;;;;;;;8.27;1.88;;;6.20;99.90;;;;;;5069111;28;20127;-66
2022/02/23 03:11:36;;;;;;;7.13;1.80;;;6.10;99.90;;;;;;5070029;28;20048;-65
2022/02/23 03:14:03;;;;;;;4.95;1.70;;;6.10;99.90;;;;;;5069981;28;20040;-65
2022/02/23 03:16:31;;;;;;;6.35;1.80;;;6.00;99.90;;;;;;5067102;28;20492;-65
2022/02/23 03:18:58;;;;;;;4.22;1.73;;;6.00;99.90;;;;;;5060863;28;20052;-65
2022/02/23 03:21:25;;;;;;;7.00;1.90;;;5.90;99.90;;;;;;5057553;28;20044;-66
2022/02/23 03:23:52;;;;;;;5.70;2.35;;;5.80;99.90;;;;;;5069189;28;20048;-65
2022/02/23 03:26:20;;;;;;;6.40;1.90;;;5.80;99.90;;;;;;5063152;28;20554;-66
2022/02/23 03:28:47;;;;;;;6.75;1.65;;;5.80;99.90;;;;;;5070648;28;20418;-65
2022/02/23 03:31:15;;;;;;;7.57;2.17;;;5.70;99.90;;;;;;5069096;28;20736;-66
2022/02/23 03:33:42;;;;;;;10.27;2.53;;;5.60;99.90;;;;;;5069013;28;20482;-64
2022/02/23 03:36:12;;;;;;;7.25;2.10;;;5.60;99.90;;;;;;5069141;28;20044;-64
2022/02/23 03:38:40;;;;;;;10.20;2.08;;;5.60;99.90;;;;;;5068253;28;20044;-65
2022/02/23 03:41:07;;;;;;;7.47;1.77;;;5.60;99.90;;;;;;5069438;28;20509;-66
2022/02/23 03:43:37;;;;;;;7.45;2.50;;;5.50;99.90;;;;;;5068663;28;20477;-66
2022/02/23 03:46:05;;;;;;;6.95;1.92;;;5.40;99.90;;;;;;5069472;28;20419;-66
2022/02/23 03:48:32;;;;;;;5.43;1.70;;;5.30;99.90;;;;;;5068505;28;20052;-66
2022/02/23 03:50:59;;;;;;;6.45;1.67;;;5.20;99.90;;;;;;5068923;28;20040;-66
2022/02/23 03:53:27;;;;;;;7.82;2.13;;;5.20;99.90;;;;;;5070329;28;20059;-66
2022/02/23 03:55:54;;;;;;;4.18;1.60;;;5.20;99.90;;;;;;5069417;28;20044;-66
2022/02/23 03:58:22;;;;;;;10.07;1.98;;;5.20;99.90;;;;;;5070428;28;20469;-66
2022/02/23 04:00:49;;;;;;;10.40;2.45;;;5.20;99.90;;;;;;5057942;28;20055;-66
2022/02/23 04:03:17;;;;;;;8.40;2.40;;;5.10;99.90;;;;;;5069495;28;20600;-65
2022/02/23 04:05:44;;;;;;;10.45;2.33;;;5.10;99.90;;;;;;5068537;28;20045;-66
2022/02/23 04:08:12;;;;;;;11.82;2.30;;;5.10;99.90;;;;;;5057026;28;20058;-65
2022/02/23 04:10:39;;;;;;;11.93;1.77;;;5.00;99.90;;;;;;5072880;28;20515;-64
2022/02/23 04:13:06;;;;;;;11.20;2.40;;;5.00;99.90;;;;;;5063219;28;20127;-65
2022/02/23 04:15:34;;;;;;;11.57;2.47;;;4.90;99.90;;;;;;5062881;28;20127;-66
2022/02/23 04:18:01;;;;;;;8.23;2.53;;;4.90;99.90;;;;;;5066742;28;20080;-65
2022/02/23 04:20:29;;;;;;;10.02;2.78;;;4.80;99.90;;;;;;5062239;28;20044;-66
2022/02/23 04:22:57;;;;;;;8.45;2.40;;;4.70;99.90;;;;;;5071862;28;20062;-65
2022/02/23 04:25:24;;;;;;;10.23;2.40;;;4.70;99.90;;;;;;5067552;28;20044;-65
2022/02/23 04:27:51;;;;;;;10.13;3.15;;;4.70;99.90;;;;;;5053400;28;20041;-65
2022/02/23 04:30:19;;;;;;;8.85;2.00;;;4.60;99.90;;;;;;5072495;28;20118;-65
2022/02/23 04:32:49;;;;;;;9.70;2.40;;;4.60;99.90;;;;;;5073598;28;20055;-66
2022/02/23 04:35:16;;;;;;;12.52;2.58;;;4.60;99.90;;;;;;5072583;28;20032;-65
2022/02/23 04:37:44;;;;;;;9.75;2.97;;;4.50;99.90;;;;;;5055535;28;20388;-66
2022/02/23 04:40:11;;;;;;;15.23;2.25;;;4.50;99.90;;;;;;5073151;28;20055;-67
2022/02/23 04:42:39;;;;;;;7.93;2.33;;;4.60;99.90;;;;;;5054825;28;20052;-68
2022/02/23 04:45:06;;;;;;;7.80;2.00;;;4.60;99.90;;;;;;5070942;28;20067;-66
2022/02/23 04:47:34;;;;;;;8.35;2.33;;;4.50;99.90;;;;;;5068703;28;20048;-66
2022/02/23 04:50:01;;;;;;;11.65;2.70;;;4.50;99.90;;;;;;5054016;28;20411;-65
2022/02/23 04:52:28;;;;;;;8.45;2.50;;;4.50;99.90;;;;;;5072574;28;20032;-66
2022/02/23 04:54:56;;;;;;;11.70;2.80;;;4.40;99.90;;;;;;5035262;28;20052;-65
2022/02/23 04:57:24;;;;;;;8.55;2.22;;;4.40;99.90;;;;;;5069930;28;20035;-67
2022/02/23 04:59:52;;;;;;;9.48;2.13;;;4.40;99.90;;;;;;5072365;28;20039;-66
2022/02/23 05:02:19;;;;;;;10.60;2.45;;;4.20;99.90;;;;;;5072584;28;20040;-66
2022/02/23 05:04:46;;;;;;;8.65;2.13;;;4.20;99.90;;;;;;5072248;28;20460;-66
2022/02/23 05:07:15;;;;;;;23.42;2.70;;;4.20;99.90;;;;;;5071848;28;20487;-67
2022/02/23 05:09:42;;;;;;;11.23;3.20;;;4.20;99.90;;;;;;5066325;28;20128;-66
2022/02/23 05:12:09;;;;;;;8.82;3.03;;;4.20;99.90;;;;;;5072322;28;20513;-67
2022/02/23 05:14:37;;;;;;;15.27;2.53;;;4.10;99.90;;;;;;5072855;28;20052;-66
2022/02/23 05:17:05;;;;;;;11.45;2.60;;;4.10;99.90;;;;;;5072896;28;20063;-64
2022/02/23 05:19:34;;;;;;;7.68;2.40;;;4.10;99.90;;;;;;5072927;28;20044;-66
2022/02/23 05:22:04;;;;;;;16.43;3.77;;;4.10;99.90;;;;;;5072722;28;20048;-65
2022/02/23 05:24:33;;;;;;;8.75;2.72;;;4.00;99.90;;;;;;5072689;28;20060;-65
2022/02/23 05:27:01;;;;;;;10.40;2.47;;;4.10;99.90;;;;;;5054985;28;20060;-64
2022/02/23 05:29:32;;;;;;;8.77;2.97;;;4.10;99.90;;;;;;5071362;28;20044;-67
2022/02/23 05:32:00;;;;;;;11.23;2.90;;;4.10;99.90;;;;;;5062156;28;20070;-67
2022/02/23 05:34:28;;;;;;;7.75;2.20;;;4.00;99.90;;;;;;5071520;28;20065;-67
2022/02/23 05:36:56;;;;;;;8.52;2.60;;;4.00;99.90;;;;;;5071255;28;20106;-66
2022/02/23 05:39:23;;;;;;;12.68;2.88;;;4.00;99.90;;;;;;5072568;28;20388;-66
2022/02/23 05:41:50;;;;;;;9.50;2.88;;;3.90;99.90;;;;;;5072261;28;20044;-67
2022/02/23 05:44:17;;;;;;;15.65;2.90;;;3.80;99.90;;;;;;5071157;28;20045;-65
2022/02/23 05:46:45;;;;;;;15.48;4.43;;;3.80;99.90;;;;;;5070904;28;20365;-67
2022/02/23 05:49:13;;;;;;;8.55;2.97;;;3.70;99.90;;;;;;5071025;28;20123;-67
2022/02/23 05:51:43;;;;;;;11.65;2.63;;;3.80;99.90;;;;;;5062656;28;20518;-66
2022/02/23 05:54:11;;;;;;;18.70;3.50;;;3.80;99.90;;;;;;5060988;28;20127;-67
2022/02/23 05:56:38;;;;;;;14.27;3.40;;;3.80;99.90;;;;;;5056406;28;20507;-66
2022/02/23 05:59:06;;;;;;;12.18;3.78;;;3.80;99.90;;;;;;5046328;28;20055;-67
2022/02/23 06:01:34;;;;;;;11.38;3.35;;;3.80;99.90;;;;;;5057715;28;20053;-66
2022/02/23 06:04:02;;;;;;;19.30;3.85;;;3.80;99.90;;;;;;5067637;28;20055;-68
2022/02/23 06:06:29;;;;;;;12.50;3.38;;;3.80;99.90;;;;;;5056691;28;20049;-68
2022/02/23 06:08:57;;;;;;;18.45;4.70;;;3.80;99.90;;;;;;5054546;28;20037;-67
2022/02/23 06:11:25;;;;;;;21.25;6.25;;;3.70;99.90;;;;;;5063567;28;20152;-68
2022/02/23 06:13:53;;;;;;;18.13;4.15;;;3.70;99.90;;;;;;5063123;28;20058;-67
2022/02/23 06:16:22;;;;;;;18.08;4.25;;;3.70;99.90;;;;;;5069626;28;20033;-68
2022/02/23 06:18:54;;;;;;;14.50;3.95;;;3.80;99.90;;;;;;5065515;28;20136;-68
2022/02/23 06:21:23;;;;;;;18.90;4.47;;;3.90;99.90;;;;;;5069791;28;20056;-66
2022/02/23 06:23:51;;;;;;;16.88;3.53;;;4.00;99.90;;;;;;5053503;28;20037;-67
2022/02/23 06:26:20;;;;;;;12.88;3.67;;;4.10;99.90;;;;;;5071350;28;20053;-67
2022/02/23 06:28:47;;;;;;;13.00;3.83;;;4.20;99.90;;;;;;5070984;28;20044;-67
2022/02/23 06:31:15;;;;;;;16.75;4.00;;;4.20;99.90;;;;;;5066180;28;20055;-67
2022/02/23 06:33:45;;;;;;;13.40;4.40;;;4.30;99.90;;;;;;5063647;28;20040;-67
2022/02/23 06:36:14;;;;;;;11.77;3.90;;;4.30;99.90;;;;;;5040864;28;20033;-68
2022/02/23 06:38:41;;;;;;;10.43;3.75;;;4.30;99.90;;;;;;5066387;28;20040;-67
2022/02/23 06:41:14;;;;;;;22.52;4.28;;;4.20;99.90;;;;;;5070455;28;20052;-68
2022/02/23 06:43:47;;;;;;;12.27;3.97;;;4.20;99.90;;;;;;5069252;28;20060;-67
2022/02/23 06:46:15;;;;;;;18.42;4.38;;;4.20;99.90;;;;;;5052459;28;20052;-68
2022/02/23 06:48:47;;;;;;;15.00;4.32;;;4.10;99.90;;;;;;5050230;28;20049;-66
2022/02/23 06:51:18;;;;;;;14.85;3.70;;;4.10;99.90;;;;;;5066204;28;20465;-68
2022/02/23 06:53:49;;;;;;;18.33;4.10;;;4.10;99.90;;;;;;5058519;28;20041;-68
2022/02/23 06:56:17;;;;;;;16.67;3.92;;;4.20;99.90;;;;;;5066128;28;20116;-66
2022/02/23 06:58:50;;;;;;;13.65;3.80;;;4.10;99.90;;;;;;5069747;28;20083;-67
2022/02/23 07:01:19;;;;;;;12.95;3.67;;;4.20;99.90;;;;;;5060011;28;20104;-68
2022/02/23 07:03:48;;;;;;;18.25;4.70;;;4.20;99.90;;;;;;5050276;28;20061;-66
2022/02/23 07:06:16;;;;;;;11.35;3.53;;;4.20;99.90;;;;;;5068072;28;20068;-67
2022/02/23 07:08:46;;;;;;;18.50;4.03;;;4.20;99.90;;;;;;5070861;28;20075;-67
2022/02/23 07:11:13;;;;;;;19.27;4.50;;;4.20;99.90;;;;;;5058501;28;20048;-66
2022/02/23 07:13:41;;;;;;;11.63;3.67;;;4.20;99.90;;;;;;5057055;28;20036;-67
2022/02/23 07:16:08;;;;;;;19.55;4.70;;;4.20;99.90;;;;;;5053076;28;20049;-67
2022/02/23 07:18:37;;;;;;;15.55;4.70;;;4.30;99.90;;;;;;5052353;28;20049;-67
2022/02/23 07:21:04;;;;;;;15.30;4.15;;;4.40;99.90;;;;;;5071018;28;20037;-68
2022/02/23 07:23:31;;;;;;;17.65;4.50;;;4.40;99.90;;;;;;5068070;28;20470;-67
2022/02/23 07:25:58;;;;;;;15.73;4.00;;;4.50;99.90;;;;;;5071278;28;20442;-67
2022/02/23 07:28:26;;;;;;;18.48;4.10;;;4.50;99.90;;;;;;5050338;28;20076;-66
2022/02/23 07:31:14;;;;;;;16.33;4.20;;;4.50;99.90;;;;;;5035901;28;20161;-66
2022/02/23 07:33:42;;;;;;;13.13;4.00;;;4.50;99.90;;;;;;5070168;28;20137;-67
2022/02/23 07:36:10;;;;;;;12.55;3.25;;;4.60;99.90;;;;;;5059621;28;20043;-68
2022/02/23 07:38:42;;;;;;;12.32;3.88;;;4.60;99.90;;;;;;5063486;28;20127;-68
2022/02/23 07:41:11;;;;;;;12.50;3.72;;;4.60;99.90;;;;;;5055314;28;20045;-67
2022/02/23 07:43:59;;;;;;;12.10;3.65;;;4.60;99.90;;;;;;5062359;28;20036;-69
2022/02/23 07:46:28;;;;;;;21.08;4.47;;;4.70;99.90;;;;;;5062340;28;20519;-68
2022/02/23 07:49:00;;;;;;;16.02;5.00;;;4.70;99.90;;;;;;5070345;28;20045;-67
2022/02/23 07:51:29;;;;;;;13.75;4.38;;;4.90;99.90;;;;;;5069937;28;20045;-67
2022/02/23 07:53:58;;;;;;;18.80;4.28;;;4.90;99.90;;;;;;5068990;28;20413;-67
2022/02/23 07:56:26;;;;;;;15.38;4.25;;;5.00;99.90;;;;;;5059002;28;20044;-67
2022/02/23 07:58:54;;;;;;;18.42;4.22;;;5.10;99.90;;;;;;5052543;28;20029;-68
2022/02/23 08:01:34;;;;;;;18.58;4.75;;;5.20;99.90;;;;;;5056264;28;20507;-65
2022/02/23 08:04:02;;;;;;;16.73;5.35;;;5.30;99.90;;;;;;5040421;28;20449;-68
2022/02/23 08:06:31;;;;;;;14.93;4.95;;;5.40;99.90;;;;;;5061554;28;20553;-67
2022/02/23 08:09:02;;;;;;;24.23;4.47;;;5.50;99.90;;;;;;5056357;28;20055;-66
2022/02/23 08:11:32;;;;;;;;;;;5.50;99.90;;;;;;5065550;28;20056;-67
2022/02/23 08:13:59;;;;;;;18.45;4.35;;;5.50;99.90;;;;;;5065287;28;20359;-68
2022/02/23 08:19:33;;;;;;;17.63;4.50;;;5.80;99.90;;;;;;5044469;28;20049;-67
2022/02/23 08:22:10;;;;;;;17.27;4.15;;;6.10;99.90;;;;;;5054108;28;20044;-69
2022/02/23 08:24:44;;;;;;;12.80;4.45;;;6.40;99.90;;;;;;5062047;28;20040;-69
2022/02/23 08:27:16;;;;;;;17.63;5.00;;;6.60;99.90;;;;;;5053830;28;20101;-68
2022/02/23 08:29:44;;;;;;;16.55;4.25;;;6.70;99.90;;;;;;5071177;28;20427;-68
2022/02/23 08:32:14;;;;;;;16.35;4.10;;;6.70;99.90;;;;;;5056780;28;20128;-67
2022/02/23 08:34:45;;;;;;;15.93;4.88;;;6.80;99.90;;;;;;5062544;28;20392;-67
2022/02/23 08:37:14;;;;;;;17.52;5.38;;;6.90;99.90;;;;;;5065540;28;20499;-67
2022/02/23 08:39:42;;;;;;;19.02;5.05;;;6.80;99.90;;;;;;5071827;28;20068;-66
2022/02/23 08:42:12;;;;;;;16.85;4.05;;;6.90;99.90;;;;;;5043296;28;20143;-67
2022/02/23 08:44:41;;;;;;;18.05;4.78;;;7.00;99.90;;;;;;5064805;28;20041;-66
2022/02/23 08:47:09;;;;;;;14.73;3.70;;;7.00;99.90;;;;;;5068064;28;20045;-66
2022/02/23 08:49:36;;;;;;;13.43;4.38;;;7.00;99.90;;;;;;5052622;28;20041;-65
2022/02/23 08:52:05;;;;;;;13.70;4.78;;;7.00;99.90;;;;;;5059307;28;20059;-68
2022/02/23 08:54:33;;;;;;;15.32;3.72;;;6.90;99.90;;;;;;5065416;28;20051;-68
2022/02/23 08:57:02;;;;;;;20.15;4.95;;;6.90;99.90;;;;;;5063719;28;20507;-65
2022/02/23 08:59:29;;;;;;;15.38;4.68;;;7.00;99.90;;;;;;5055527;28;20052;-68
2022/02/23 09:01:59;;;;;;;17.70;4.57;;;7.00;99.90;;;;;;5052464;28;20048;-67
2022/02/23 09:04:28;;;;;;;19.30;4.80;;;7.10;99.90;;;;;;5068215;28;20102;-66
2022/02/23 09:06:55;;;;;;;16.20;4.43;;;7.20;99.90;;;;;;5050624;28;20565;-67
2022/02/23 09:09:23;;;;;;;13.63;4.32;;;7.40;99.90;;;;;;5056658;28;20396;-66
2022/02/23 09:11:50;;;;;;;16.20;4.18;;;7.40;99.90;;;;;;5056223;28;20040;-66
2022/02/23 09:14:18;;;;;;;16.23;5.25;;;7.50;99.90;;;;;;5067195;28;20101;-67
2022/02/23 09:16:45;;;;;;;20.27;4.38;;;7.50;99.90;;;;;;5073681;28;20036;-67
2022/02/23 09:19:13;;;;;;;16.77;4.28;;;7.60;99.90;;;;;;5069052;28;20512;-68
2022/02/23 09:21:41;;;;;;;14.32;4.45;;;7.70;99.90;;;;;;5072925;28;20044;-68
2022/02/23 09:24:09;;;;;;;18.80;4.38;;;7.80;99.90;;;;;;5056829;28;20040;-67
2022/02/23 09:26:36;;;;;;;18.23;5.30;;;7.90;99.90;;;;;;5068591;28;20049;-66
2022/02/23 09:29:06;;;;;;;15.88;3.78;;;7.90;99.90;;;;;;5073686;28;20201;-66
2022/02/23 09:31:36;;;;;;;12.82;3.50;;;7.80;99.90;;;;;;5039871;28;20483;-67
2022/02/23 09:34:06;;;;;;;12.43;3.70;;;7.80;99.90;;;;;;5073108;28;20079;-66
2022/02/23 09:36:38;;;;;;;15.00;4.53;;;7.70;99.90;;;;;;5058995;28;20036;-65
2022/02/23 09:39:08;;;;;;;20.55;3.80;;;7.60;99.90;;;;;;5071765;28;20480;-66
2022/02/23 09:41:39;;;;;;;12.02;4.10;;;7.50;99.90;;;;;;5068367;28;20033;-68
2022/02/23 09:44:08;;;;;;;;;;;7.50;99.90;;;;;;5063625;28;20147;-67
2022/02/23 09:46:35;;;;;;;16.45;3.60;;;7.70;99.90;;;;;;5073393;28;20304;-67
2022/02/23 09:49:03;;;;;;;14.90;3.78;;;7.70;99.90;;;;;;5073787;28;20119;-68
2022/02/23 09:51:31;;;;;;;12.35;3.63;;;7.70;99.90;;;;;;5065654;28;20396;-67
2022/02/23 09:53:58;;;;;;;10.52;3.25;;;7.70;99.90;;;;;;5037300;28;20067;-67
2022/02/23 09:56:26;;;;;;;14.80;3.10;;;7.60;99.90;;;;;;5054688;28;20135;-66
2022/02/23 09:58:54;;;;;;;22.23;4.05;;;7.60;99.90;;;;;;5069677;28;20068;-66
2022/02/23 10:01:25;;;;;;;13.07;3.70;;;7.60;99.90;;;;;;5035131;28;20071;-67
2022/02/23 10:03:53;;;;;;;18.65;6.38;;;7.60;99.90;;;;;;5072849;28;20900;-68
2022/02/23 10:06:30;;;;;;;15.02;3.70;;;7.50;99.90;;;;;;5056076;28;20380;-67
2022/02/23 10:09:06;;;;;;;9.13;3.85;;;7.60;99.90;;;;;;5070814;28;20063;-67
2022/02/23 10:11:35;;;;;;;12.55;3.42;;;7.60;99.90;;;;;;5054630;28;20079;-67
2022/02/23 10:14:04;;;;;;;15.10;4.10;;;7.60;99.90;;;;;;5071199;28;20074;-66
2022/02/23 10:16:43;;;;;;;17.52;3.65;;;7.70;99.90;;;;;;5034642;28;20048;-66
2022/02/23 10:19:12;;;;;;;12.15;3.28;;;7.90;99.90;;;;;;5072126;28;20040;-66
2022/02/23 10:21:55;;;;;;;15.77;3.58;;;8.00;99.90;;;;;;5053371;28;20124;-67
2022/02/23 10:24:49;;;;;;;17.00;3.42;;;8.20;99.90;;;;;;5053864;28;20112;-67
2022/02/23 10:27:19;;;;;;;17.17;3.67;;;8.30;99.90;;;;;;5053569;28;20048;-67
2022/02/23 10:29:55;;;;;;;13.00;3.53;;;8.20;99.90;;;;;;5052371;28;20044;-65
2022/02/23 10:32:25;;;;;;;11.70;2.85;;;8.30;99.90;;;;;;5059569;28;20470;-67
2022/02/23 10:34:57;;;;;;;14.07;3.15;;;8.30;99.90;;;;;;5071699;28;20545;-65
2022/02/23 10:37:26;;;;;;;13.68;3.03;;;8.30;99.90;;;;;;5060729;28;20046;-67
2022/02/23 10:40:02;;;;;;;11.02;2.83;;;8.50;99.90;;;;;;5065917;28;20075;-68
2022/02/23 10:42:34;;;;;;;9.93;2.97;;;8.60;99.90;;;;;;5059565;28;20127;-66
2022/02/23 10:45:06;;;;;;;9.60;2.90;;;8.90;99.90;;;;;;5070944;28;20104;-68
2022/02/23 10:47:37;;;;;;;;;;;9.00;99.90;;;;;;5048474;28;20055;-66
2022/02/23 10:50:07;;;;;;;11.10;2.95;;;9.00;99.90;;;;;;5062609;28;19924;-66
2022/02/23 10:52:40;;;;;;;12.25;2.88;;;9.00;99.90;;;;;;5038144;28;20036;-66
2022/02/23 10:55:14;;;;;;;13.07;2.85;;;8.90;99.90;;;;;;5071140;28;20112;-66
2022/02/23 10:57:47;;;;;;;10.88;2.42;;;9.10;99.90;;;;;;5037378;28;20051;-67
2022/02/23 11:00:20;;;;;;;9.73;2.47;;;9.30;99.90;;;;;;5063428;28;20526;-66
2022/02/23 11:02:49;;;;;;;9.82;3.25;;;9.40;99.90;;;;;;5066548;28;20059;-67
2022/02/23 11:05:23;;;;;;;9.27;2.45;;;9.70;99.90;;;;;;5072131;28;20440;-66
2022/02/23 11:07:56;;;;;;;15.65;3.03;;;10.00;99.90;;;;;;5063484;28;20041;-68
2022/02/23 11:10:25;;;;;;;12.32;2.95;;;10.10;99.90;;;;;;5070025;28;20044;-67
2022/02/23 11:12:55;;;;;;;8.75;2.72;;;10.30;99.90;;;;;;5069060;28;20579;-67
2022/02/23 11:15:27;;;;;;;12.05;2.80;;;10.30;99.90;;;;;;5059546;28;20680;-68
2022/02/23 11:17:55;;;;;;;10.27;3.92;;;10.50;99.90;;;;;;5070644;28;20132;-67
2022/02/23 11:20:30;;;;;;;14.67;2.70;;;10.60;99.90;;;;;;5068687;28;20083;-67
2022/02/23 11:23:00;;;;;;;10.52;2.53;;;10.50;99.90;;;;;;5070354;28;20462;-68
2022/02/23 11:25:37;;;;;;;10.30;2.97;;;10.60;99.90;;;;;;5071603;28;20052;-67
2022/02/23 11:28:17;;;;;;;7.60;2.83;;;10.80;99.90;;;;;;5069608;28;20083;-67
2022/02/23 11:30:45;;;;;;;13.95;2.70;;;11.10;99.90;;;;;;5050610;28;20403;-68
2022/02/23 11:33:13;;;;;;;14.60;2.63;;;11.10;99.90;;;;;;5052356;28;20399;-68
2022/02/23 11:35:54;;;;;;;10.38;2.08;;;11.10;99.90;;;;;;5065191;28;20043;-65
2022/02/23 11:38:28;;;;;;;11.50;2.58;;;11.00;99.90;;;;;;5054537;28;20045;-67
2022/02/23 11:40:57;;;;;;;11.85;2.40;;;11.30;99.90;;;;;;5048441;28;20033;-67
2022/02/23 11:43:29;;;;;;;9.15;2.30;;;11.10;99.90;;;;;;5065376;28;20054;-68
2022/02/23 11:46:04;;;;;;;10.73;2.22;;;11.20;99.90;;;;;;5067306;28;20043;-68
2022/02/23 11:48:59;;;;;;;9.48;2.00;;;11.20;99.90;;;;;;5047543;28;20045;-68
2022/02/23 11:51:37;;;;;;;9.57;1.83;;;11.20;99.90;;;;;;5063538;28;20044;-67
2022/02/23 11:54:05;;;;;;;6.15;1.67;;;11.10;99.90;;;;;;5056534;28;20044;-68
2022/02/23 11:56:38;;;;;;;11.00;2.60;;;11.20;99.90;;;;;;5064814;28;20479;-66
2022/02/23 11:59:47;;;;;;;11.13;2.17;;;11.40;99.90;;;;;;5062512;28;20355;-67
2022/02/23 12:02:15;;;;;;;8.55;2.00;;;11.70;99.90;;;;;;5067257;28;20055;-68
2022/02/23 12:04:52;;;;;;;8.25;2.40;;;11.70;99.90;;;;;;5062972;28;20469;-67
2022/02/23 12:07:20;;;;;;;7.05;1.92;;;11.80;99.90;;;;;;5067562;28;20151;-67
2022/02/23 12:09:53;;;;;;;6.90;1.80;;;11.80;99.90;;;;;;5070384;28;20071;-68
2022/02/23 12:12:33;;;;;;;5.68;1.40;;;11.90;99.90;;;;;;5067338;28;20409;-67
2022/02/23 12:15:23;;;;;;;5.53;1.50;;;12.10;99.90;;;;;;5067900;28;20040;-67
2022/02/23 12:17:56;;;;;;;9.18;1.65;;;12.40;99.90;;;;;;5068121;28;20510;-67
2022/02/23 12:20:37;;;;;;;9.93;1.90;;;12.20;99.90;;;;;;5042588;28;20067;-67
2022/02/23 12:23:19;;;;;;;4.47;1.50;;;12.40;99.90;;;;;;5068805;28;20102;-67
2022/02/23 12:26:16;;;;;;;;;;;13.00;99.90;;;;;;5067878;28;20398;-68
2022/02/23 12:28:47;;;;;;;9.57;1.60;;;13.30;99.90;;;;;;5051032;28;19935;-67
2022/02/23 12:31:30;;;;;;;7.55;1.95;;;13.10;99.90;;;;;;5061328;28;20683;-67
2022/02/23 12:34:01;;;;;;;8.00;1.92;;;13.30;99.90;;;;;;5068977;28;20040;-67
2022/02/23 12:36:54;;;;;;;9.20;1.70;;;13.70;99.90;;;;;;5068609;28;20032;-67
2022/02/23 12:39:30;;;;;;;12.23;2.83;;;13.70;99.90;;;;;;5065457;28;20032;-68
2022/02/23 12:42:02;;;;;;;9.60;2.15;;;13.70;99.90;;;;;;5069341;28;20072;-67
2022/02/23 12:44:32;;;;;;;8.65;2.17;;;14.10;99.90;;;;;;5072925;28;20123;-67
2022/02/23 12:47:06;;;;;;;13.45;2.70;;;15.90;99.90;;;;;;5068686;28;20068;-67
2022/02/23 12:49:33;;;;;;;6.13;1.63;;;18.00;99.90;;;;;;5070891;28;20059;-67
2022/02/23 12:52:02;;;;;;;8.43;2.03;;;19.70;99.90;;;;;;5063646;28;20071;-65
2022/02/23 12:54:32;;;;;;;6.43;1.50;;;22.10;97.60;;;;;;5054226;28;20198;-68
2022/02/23 12:57:04;;;;;;;8.60;1.70;;;23.80;92.40;;;;;;5066364;28;20546;-66
2022/02/23 12:59:33;;;;;;;9.10;1.73;;;24.80;88.60;;;;;;5053360;28;20033;-65
2022/02/23 13:02:03;;;;;;;6.20;1.42;;;26.00;81.30;;;;;;5059810;28;20373;-67
2022/02/23 13:04:36;;;;;;;9.98;1.60;;;25.30;71.00;;;;;;5071882;28;20049;-65
2022/02/23 13:07:14;;;;;;;3.75;1.23;;;25.10;69.80;;;;;;5052248;28;20059;-65